Thunder radar more information blitzortung!


Löydät sääaseman tiedot myös:

European Weather Network

Finland Weather Exchange

Weather Underground

AWEKAS



Weather Underground säähistoriasivu

Päivittäin yhteenveto Tou 15, 2017 Yksiköt:  Englantilaiset    Metriset   Molemmat
« Edellinen Päivä
Seuraava Päivä »
Päivittäin Viikoittain Kuukausittain Vuosittain Mukautettu
  Korkea: Matala: Keskiarvo:
Lämpötila: TemperatureC °F 1.1 °F 4.9 °F
Kastepiste: DewpointC °F -2.1 °F -0.2 °F
Kosteus: Humidity % 50 % 70 %
Tuulen nopeus: WindSpeedKMH mph 0.0 mph 1.3 mph
Tuulenpuuska: WindSpeedGustKMH mph - -
Tuuli:- - ESE
Ilmanpaine: PressurehPa in 1020.5 in -
Sade: 0.0 in    
Historical Graphs
 
 
Taulukkotiedot Tou 15, 2017
Aika Lämpötila Kastepiste Ilmanpaine Tuuli Tuulen nopeus Tuulenpuuska Kosteus Sademäärä (tunneittain)
TemperatureC °F DewpointC °F PressurehPa in Calm     Humidity % HourlyPrecipMM in
00:00 2.0 °F 0.4 °F 1020.5 in Calm   1.6 mph 89 % 0.0 in
00:15 1.9 °F 0.3 °F 1020.5 in Calm   4.8 mph 89 % 0.0 in
00:30 1.9 °F 0.3 °F 1020.9 in Calm   4.8 mph 89 % 0.0 in
00:45 1.8 °F 0.2 °F 1020.9 in North 1.6 mph 6.4 mph 89 % 0.0 in
01:00 1.9 °F 0.4 °F 1020.9 in Calm   3.2 mph 90 % 0.0 in
01:15 1.9 °F 0.5 °F 1020.9 in Calm   4.8 mph 90 % 0.0 in
01:30 1.9 °F 0.4 °F 1020.9 in NNW 1.6 mph 6.4 mph 90 % 0.0 in
01:45 1.9 °F 0.4 °F 1020.9 in Calm   4.8 mph 90 % 0.0 in
02:00 1.9 °F 0.4 °F 1021.2 in Calm   3.2 mph 90 % 0.0 in
02:15 1.9 °F 0.5 °F 1021.2 in Calm   4.8 mph 90 % 0.0 in
02:30 1.9 °F 0.4 °F 1021.2 in NW 1.6 mph 6.4 mph 90 % 0.0 in
02:45 1.7 °F 0.3 °F 1021.2 in North 1.6 mph 8.0 mph 90 % 0.0 in
03:00 1.6 °F 0.3 °F 1021.2 in North 1.6 mph 11.3 mph 91 % 0.0 in
03:15 1.6 °F 0.4 °F 1021.6 in Calm   3.2 mph 92 % 0.0 in
03:30 1.6 °F 0.5 °F 1021.6 in Calm   3.2 mph 92 % 0.0 in
03:45 1.6 °F 0.5 °F 1021.6 in Calm   4.8 mph 92 % 0.0 in
04:00 1.6 °F 0.5 °F 1021.6 in Calm   3.2 mph 92 % 0.0 in
04:15 1.6 °F 0.5 °F 1021.9 in Calm   6.4 mph 92 % 0.0 in
04:30 1.7 °F 0.4 °F 1021.9 in North 1.6 mph 14.5 mph 91 % 0.0 in
04:45 1.7 °F 0.4 °F 1021.9 in North 1.6 mph 8.0 mph 91 % 0.0 in
05:00 1.7 °F 0.3 °F 1021.9 in Calm   4.8 mph 90 % 0.0 in
05:15 1.6 °F -0.1 °F 1022.2 in NNE 3.2 mph 6.4 mph 89 % 0.0 in
05:30 1.5 °F -0.1 °F 1022.2 in Calm   4.8 mph 89 % 0.0 in
05:45 1.4 °F -0.4 °F 1022.6 in North 1.6 mph 6.4 mph 88 % 0.0 in
06:00 1.3 °F -0.6 °F 1022.6 in Calm   3.2 mph 87 % 0.0 in
06:15 1.2 °F -0.7 °F 1022.9 in Calm   1.6 mph 87 % 0.0 in
06:30 1.2 °F -0.8 °F 1022.9 in Calm   8.0 mph 87 % 0.0 in
06:45 1.1 °F -0.8 °F 1022.9 in Calm   3.2 mph 87 % 0.0 in
07:00 1.2 °F -0.9 °F 1022.9 in ENE 1.6 mph 4.8 mph 86 % 0.0 in
07:15 1.2 °F -1.1 °F 1023.2 in North 3.2 mph 8.0 mph 85 % 0.0 in
07:30 1.2 °F -0.9 °F 1023.2 in Calm   3.2 mph 86 % 0.0 in
07:45 1.3 °F -1.1 °F 1023.2 in NNE 3.2 mph 8.0 mph 84 % 0.0 in
08:00 1.6 °F -1.0 °F 1023.6 in NNE 1.6 mph 6.4 mph 83 % 0.0 in
08:15 2.0 °F -0.9 °F 1023.6 in Calm   3.2 mph 81 % 0.0 in
08:30 2.2 °F -0.9 °F 1023.6 in Calm   4.8 mph 80 % 0.0 in
08:45 2.4 °F -0.7 °F 1023.6 in Calm   6.4 mph 80 % 0.0 in
09:00 2.4 °F -0.9 °F 1023.9 in East 1.6 mph 6.4 mph 79 % 0.0 in
09:15 2.3 °F -0.8 °F 1023.9 in NNW 1.6 mph 6.4 mph 80 % 0.0 in
09:30 2.2 °F -1.2 °F 1024.3 in North 4.8 mph 11.3 mph 78 % 0.0 in
09:45 2.6 °F -0.8 °F 1024.3 in Calm   4.8 mph 78 % 0.0 in
10:00 2.8 °F -0.8 °F 1024.3 in Calm   4.8 mph 77 % 0.0 in
10:15 4.0 °F -0.4 °F 1024.3 in NE 1.6 mph 6.4 mph 73 % 0.0 in
10:30 4.4 °F -0.2 °F 1024.6 in NNE 1.6 mph 9.7 mph 72 % 0.0 in
10:45 5.1 °F 0.1 °F 1024.6 in North 3.2 mph 9.7 mph 70 % 0.0 in
11:00 6.1 °F 0.0 °F 1024.6 in NNE 1.6 mph 8.0 mph 65 % 0.0 in
11:15 6.3 °F 0.0 °F 1024.6 in NNE 1.6 mph 8.0 mph 64 % 0.0 in
11:30 6.3 °F -0.2 °F 1024.6 in North 3.2 mph 8.0 mph 63 % 0.0 in
11:45 6.8 °F -0.2 °F 1024.9 in North 3.2 mph 8.0 mph 61 % 0.0 in
12:00 6.3 °F -0.7 °F 1024.9 in North 4.8 mph 16.1 mph 61 % 0.0 in
12:15 6.6 °F -0.6 °F 1025.3 in North 4.8 mph 11.3 mph 60 % 0.0 in
12:30 7.0 °F -0.2 °F 1024.9 in NNE 3.2 mph 6.4 mph 60 % 0.0 in
12:45 7.7 °F 0.0 °F 1024.9 in NNE 3.2 mph 8.0 mph 58 % 0.0 in
13:00 8.1 °F 0.0 °F 1024.9 in North 3.2 mph 11.3 mph 57 % 0.0 in
13:15 8.2 °F -0.1 °F 1024.9 in North 3.2 mph 12.9 mph 56 % 0.0 in
13:30 7.9 °F -0.3 °F 1024.9 in North 3.2 mph 14.5 mph 56 % 0.0 in
13:45 8.3 °F -0.2 °F 1025.3 in NNW 3.2 mph 8.0 mph 55 % 0.0 in
14:00 8.8 °F 0.0 °F 1025.3 in North 3.2 mph 9.7 mph 54 % 0.0 in
14:15 9.0 °F -0.1 °F 1025.3 in North 3.2 mph 14.5 mph 53 % 0.0 in
14:30 9.0 °F -0.6 °F 1025.3 in North 4.8 mph 17.7 mph 51 % 0.0 in
14:45 9.5 °F 0.6 °F 1025.3 in NNE 3.2 mph 8.0 mph 54 % 0.0 in
15:00 9.5 °F -0.1 °F 1025.6 in North 3.2 mph 11.3 mph 51 % 0.0 in
15:15 9.4 °F 0.5 °F 1025.6 in North 3.2 mph 6.4 mph 54 % 0.0 in
15:30 9.6 °F -0.3 °F 1025.6 in NNE 3.2 mph 8.0 mph 50 % 0.0 in
15:45 9.8 °F 0.4 °F 1025.6 in NE 3.2 mph 6.4 mph 52 % 0.0 in
16:00 10.0 °F 0.6 °F 1026.0 in NE 1.6 mph 6.4 mph 52 % 0.0 in
16:15 10.1 °F 0.4 °F 1026.0 in NNE 1.6 mph 8.0 mph 51 % 0.0 in
16:30 10.2 °F 0.7 °F 1026.0 in NE 1.6 mph 6.4 mph 52 % 0.0 in
16:45 10.3 °F 1.1 °F 1026.3 in NE 3.2 mph 6.4 mph 53 % 0.0 in
17:00 10.1 °F 0.4 °F 1026.3 in NNE 1.6 mph 8.0 mph 51 % 0.0 in
17:15 10.1 °F 0.6 °F 1026.3 in NNE 1.6 mph 8.0 mph 52 % 0.0 in
17:30 10.0 °F 0.3 °F 1026.6 in NNE 1.6 mph 9.7 mph 51 % 0.0 in
17:45 10.0 °F 0.0 °F 1026.6 in NNE 1.6 mph 6.4 mph 50 % 0.0 in
18:00 9.8 °F 0.7 °F 1026.6 in NE 1.6 mph 6.4 mph 53 % 0.0 in
18:15 9.8 °F 0.1 °F 1026.6 in NE 1.6 mph 6.4 mph 51 % 0.0 in
18:30 9.5 °F -0.1 °F 1027.0 in NNE 1.6 mph 6.4 mph 51 % 0.0 in
18:45 9.3 °F 0.0 °F 1027.0 in Calm   6.4 mph 52 % 0.0 in
19:00 9.2 °F -0.2 °F 1027.0 in NNE 1.6 mph 6.4 mph 52 % 0.0 in
19:15 8.8 °F 0.2 °F 1027.3 in NNE 1.6 mph 6.4 mph 55 % 0.0 in
19:30 8.4 °F 0.1 °F 1027.3 in Calm   4.8 mph 56 % 0.0 in
19:45 8.3 °F -0.8 °F 1027.3 in Calm   4.8 mph 53 % 0.0 in
20:00 7.9 °F -0.4 °F 1027.7 in Calm   3.2 mph 56 % 0.0 in
20:15 7.6 °F -0.4 °F 1027.7 in Calm   3.2 mph 57 % 0.0 in
20:30 7.2 °F -0.3 °F 1028.0 in Calm   1.6 mph 59 % 0.0 in
20:45 6.9 °F -0.1 °F 1028.0 in Calm   1.6 mph 61 % 0.0 in
21:00 6.5 °F 0.2 °F 1028.3 in Calm   3.2 mph 64 % 0.0 in
21:15 6.2 °F -0.3 °F 1028.3 in Calm   1.6 mph 63 % 0.0 in
21:30 5.9 °F -0.1 °F 1028.7 in Calm     65 % 0.0 in
21:45 5.6 °F -0.5 °F 1028.7 in Calm   3.2 mph 65 % 0.0 in
22:00 5.1 °F -0.7 °F 1029.0 in Calm     66 % 0.0 in
22:15 4.5 °F -0.9 °F 1029.0 in Calm   6.4 mph 68 % 0.0 in
22:30 3.7 °F -1.3 °F 1029.3 in Calm     70 % 0.0 in
22:45 3.0 °F -1.4 °F 1029.7 in Calm     73 % 0.0 in
23:00 2.6 °F -1.6 °F 1029.7 in Calm     74 % 0.0 in
23:15 2.3 °F -1.6 °F 1030.0 in Calm     75 % 0.0 in
23:30 2.0 °F -1.8 °F 1030.0 in Calm     76 % 0.0 in
23:45 1.5 °F -2.1 °F 1030.0 in Calm     77 % 0.0 in
Esan sääasema
Terveisin Weather Underground - 2.75 mb

Alkuperäinen skripti  Jim McMurry - jmcmurry@mwt.net Sovitettu myös templatelle  Wim van der Kuil - Leuven-Template.eu

Laitteet joita käytämme:

Sääasema
Davis VP2

Sääasemaohjelma
Cumulus

Sääaseman tietokone
Asus EeePC

Palveluntarjoaja
Suncomet

Davis VP2

Cumulus

Asus EeePC

Suncomet